createdAt,value
2017-11-25T17:29:10.036Z,99240.38
2017-11-25T17:31:39.844Z,99236.00
2017-11-25T17:42:00.560Z,99232.93
2017-11-25T17:44:29.815Z,99234.00
2017-11-25T17:46:59.074Z,99228.23
2017-11-25T17:49:28.188Z,99220.22
2017-11-25T17:54:12.249Z,99221.77
2017-11-25T17:56:41.209Z,99196.59
2017-11-25T17:59:10.446Z,99222.23
2017-11-25T18:01:39.695Z,99215.23
2017-11-25T18:04:08.702Z,99198.35
2017-11-25T18:06:37.746Z,99200.81
2017-11-25T18:09:06.944Z,99202.84
2017-11-25T18:11:36.163Z,99199.89
2017-11-25T18:14:05.285Z,99194.47
2017-11-25T18:16:34.169Z,99196.41
2017-11-25T18:19:03.311Z,99163.66
2017-11-25T18:21:32.603Z,99189.41
2017-11-25T18:24:01.898Z,99184.95
2017-11-25T18:26:30.925Z,99176.65
2017-11-25T18:28:59.923Z,99173.73
2017-11-25T18:31:29.710Z,99170.34
2017-11-25T18:33:58.752Z,99179.33
2017-11-25T18:36:27.912Z,99172.78
2017-11-25T18:38:57.108Z,99169.08
2017-11-25T18:41:26.522Z,99167.38
2017-11-25T18:43:56.475Z,99157.28
2017-11-25T18:46:25.624Z,99152.98
2017-11-25T18:48:54.821Z,99146.80
2017-11-25T18:51:23.853Z,99141.90
2017-11-25T18:53:52.855Z,99135.75
2017-11-25T18:56:22.823Z,99135.08
2017-11-25T18:58:51.805Z,99140.70
2017-11-25T19:01:21.615Z,99141.09
2017-11-25T19:03:50.881Z,99135.56
2017-11-25T19:06:19.994Z,99093.27
2017-11-25T19:08:49.228Z,99128.59
2017-11-25T19:11:18.485Z,99128.01
2017-11-25T19:13:48.203Z,99119.25
2017-11-25T19:16:17.522Z,99118.98
2017-11-25T19:18:46.674Z,99122.41
2017-11-25T19:21:15.844Z,99064.33
2017-11-25T19:23:45.078Z,99113.96
2017-11-25T19:26:14.090Z,99120.27
2017-11-25T19:28:43.656Z,99109.40
2017-11-25T19:31:12.971Z,99108.94
2017-11-25T19:33:42.056Z,99110.98
2017-11-25T19:36:11.210Z,99121.31
2017-11-25T19:38:40.727Z,99112.23
2017-11-25T19:41:10.131Z,99106.83
2017-11-25T19:43:40.120Z,99103.39
2017-11-25T19:46:09.505Z,99111.20
2017-11-25T19:48:39.121Z,99105.18
2017-11-25T19:51:08.186Z,99106.23
2017-11-25T19:53:37.444Z,99087.89
2017-11-25T19:56:06.513Z,99094.87
2017-11-25T19:58:35.692Z,99112.33
2017-11-25T20:01:04.831Z,99113.59
2017-11-25T20:03:33.828Z,99115.66
2017-11-25T20:06:03.072Z,99120.38
2017-11-25T20:08:32.024Z,99095.34
2017-11-25T20:11:01.381Z,99122.47
2017-11-25T20:13:30.780Z,99117.06
2017-11-25T20:15:59.923Z,99109.70
2017-11-25T20:18:29.041Z,99119.04
2017-11-25T20:20:58.264Z,99118.13
2017-11-25T20:23:27.431Z,99122.25
2017-11-25T20:25:56.443Z,99121.94
2017-11-25T20:28:25.376Z,99132.36
2017-11-25T20:30:54.237Z,99123.03
2017-11-25T20:33:23.485Z,99124.86
2017-11-25T20:35:52.546Z,99129.22
2017-11-25T20:38:21.738Z,99137.11
2017-11-25T20:40:50.870Z,99144.32
2017-11-25T20:43:19.957Z,99131.94
2017-11-25T20:45:49.350Z,99173.69
2017-11-25T20:48:18.493Z,99131.23
2017-11-25T20:50:47.714Z,99141.38
2017-11-25T20:53:17.056Z,99120.67
2017-11-25T20:55:46.057Z,99141.73
2017-11-25T20:58:15.114Z,99146.11
2017-11-25T21:00:44.345Z,99150.16
2017-11-25T21:03:13.441Z,99155.51
2017-11-25T21:05:44.531Z,99159.64
2017-11-25T21:08:13.886Z,99164.53
2017-11-25T21:10:44.081Z,99169.95
2017-11-25T21:13:13.067Z,99174.66
2017-11-25T21:15:42.362Z,99167.36
2017-11-25T21:18:11.514Z,99165.63
2017-11-25T21:20:40.522Z,99142.66
2017-11-25T21:23:09.647Z,99132.40
2017-11-25T21:25:38.870Z,99169.94
2017-11-25T21:28:07.926Z,99177.13
2017-11-25T21:30:37.056Z,99172.27
2017-11-25T21:33:06.162Z,99169.00
2017-11-25T21:35:35.039Z,99167.41
2017-11-25T21:38:04.207Z,99169.50
2017-11-25T21:40:33.517Z,99173.06
2017-11-25T21:43:02.481Z,99170.85
2017-11-25T21:45:31.539Z,99174.86
2017-11-25T21:48:00.755Z,99178.91
2017-11-25T21:50:29.782Z,99180.69
2017-11-25T21:52:59.045Z,99179.53
2017-11-25T21:55:28.264Z,99184.25
2017-11-25T21:57:57.283Z,99156.00
2017-11-25T22:00:26.674Z,99145.48
2017-11-25T22:02:55.983Z,99147.67
2017-11-25T22:05:25.358Z,99171.34
2017-11-25T22:07:54.389Z,99179.16
2017-11-25T22:10:23.622Z,99184.13
2017-11-25T22:12:52.632Z,99193.92
2017-11-25T22:15:21.779Z,99191.75
2017-11-25T22:17:51.003Z,99211.27
2017-11-25T22:20:20.306Z,99213.32
2017-11-25T22:22:49.434Z,99207.59
2017-11-25T22:25:18.673Z,99216.20
2017-11-25T22:27:47.896Z,99218.86
2017-11-25T22:30:16.933Z,99219.50
2017-11-25T22:32:46.153Z,99207.09
2017-11-25T22:35:15.197Z,99225.83
2017-11-25T22:37:44.495Z,99227.09
2017-11-25T22:40:14.075Z,99234.69
2017-11-25T22:42:43.332Z,99240.92
2017-11-25T22:45:12.720Z,99240.92
2017-11-25T22:47:42.152Z,99203.00
2017-11-25T22:50:11.385Z,99252.92
2017-11-25T22:52:40.483Z,99238.55
2017-11-25T22:55:09.585Z,99239.32
2017-11-25T22:57:38.676Z,99244.66
2017-11-25T23:00:08.232Z,99238.81
2017-11-25T23:02:37.908Z,99222.87
2017-11-25T23:05:07.198Z,99246.08
2017-11-25T23:07:36.617Z,99246.87
2017-11-25T23:10:05.796Z,99252.92
2017-11-25T23:12:34.895Z,99254.25
2017-11-25T23:15:03.909Z,99258.08
2017-11-25T23:17:33.122Z,99260.09
2017-11-25T23:20:02.230Z,99256.53
2017-11-25T23:22:31.414Z,99263.38
2017-11-25T23:25:00.759Z,99265.09
2017-11-25T23:27:30.164Z,99265.52
2017-11-25T23:29:59.893Z,99263.28
2017-11-25T23:32:29.040Z,99266.39
2017-11-25T23:34:58.156Z,99271.40
2017-11-25T23:37:27.528Z,99239.36
2017-11-25T23:39:56.580Z,99273.02
2017-11-25T23:42:25.820Z,99242.44
2017-11-25T23:44:54.907Z,99276.80
2017-11-25T23:47:24.047Z,99283.30
2017-11-25T23:49:53.168Z,99275.52
2017-11-25T23:52:22.300Z,99279.30
2017-11-25T23:54:51.409Z,99251.44
2017-11-25T23:57:20.791Z,99277.63
2017-11-25T23:59:49.811Z,99276.91
